Time;durP1;ratioP1;P1;durP2;ratioP2;P2;SDS_P1;SDS_P2;PMS_P1;PMS_P2;Temp;Humidity;BMP_temperature;BMP_pressure;BME280_temperature;BME280_humidity;BME280_pressure;Samples;Min_cycle;Max_cycle;Signal;HPM_P1;HPM_P2
2021/01/24 00:02:35;;;;;;;8.90;5.10;;;3.90;99.70;;;;;;8049827;29;20152;-75
2021/01/24 00:06:39;;;;;;;7.15;4.38;;;2.60;99.30;;;;;;8040016;29;20475;-74
2021/01/24 00:10:41;;;;;;;9.73;4.18;;;2.60;99.40;;;;;;8046200;29;20045;-75
2021/01/24 00:14:43;;;;;;;8.32;4.30;;;2.60;98.90;;;;;;8017404;29;21586;-75
2021/01/24 00:18:44;;;;;;;9.65;4.70;;;2.60;99.30;;;;;;8016839;29;20101;-75
2021/01/24 00:22:46;;;;;;;8.63;4.88;;;2.60;99.30;;;;;;8074847;29;20060;-76
2021/01/24 00:26:47;;;;;;;12.38;5.70;;;2.60;99.60;;;;;;8076722;29;20068;-76
2021/01/24 00:30:49;;;;;;;15.30;7.72;;;2.30;99.50;;;;;;8073706;29;20061;-75
2021/01/24 00:34:51;;;;;;;14.93;8.15;;;3.70;99.90;;;;;;8057954;29;20048;-76
2021/01/24 00:38:52;;;;;;;17.83;10.18;;;4.00;99.70;;;;;;8041235;29;20054;-76
2021/01/24 00:42:53;;;;;;;17.43;9.60;;;2.50;99.30;;;;;;8049953;29;20059;-76
2021/01/24 00:46:55;;;;;;;19.03;10.67;;;2.50;99.30;;;;;;8042559;29;20472;-76
2021/01/24 00:50:56;;;;;;;15.20;9.13;;;3.20;99.50;;;;;;8037601;29;20064;-77
2021/01/24 00:54:58;;;;;;;14.97;9.17;;;2.50;99.30;;;;;;8046719;29;20332;-77
2021/01/24 00:58:59;;;;;;;18.73;10.52;;;3.10;99.50;;;;;;8049800;29;21322;-77
2021/01/24 01:03:01;;;;;;;20.52;11.02;;;4.10;99.80;;;;;;8048218;29;20133;-76
2021/01/24 01:07:03;;;;;;;29.33;14.43;;;2.50;99.40;;;;;;8051779;29;20473;-76
2021/01/24 01:11:04;;;;;;;38.03;15.30;;;4.10;99.80;;;;;;8050549;29;20425;-75
2021/01/24 01:15:06;;;;;;;23.88;12.82;;;3.70;99.70;;;;;;8042963;29;20048;-75
2021/01/24 01:19:08;;;;;;;23.10;11.98;;;2.50;99.40;;;;;;8048730;29;20533;-74
2021/01/24 01:23:10;;;;;;;22.63;12.57;;;3.10;99.60;;;;;;8049492;29;20049;-75
2021/01/24 01:27:12;;;;;;;23.13;14.05;;;2.50;99.50;;;;;;8060038;29;20080;-74
2021/01/24 01:31:13;;;;;;;24.43;14.73;;;2.60;99.60;;;;;;8062731;29;20052;-74
2021/01/24 01:35:14;;;;;;;28.58;14.13;;;2.50;99.60;;;;;;8066441;29;20060;-75
2021/01/24 01:39:16;;;;;;;23.63;14.80;;;2.50;99.40;;;;;;8054572;29;20049;-73
2021/01/24 01:43:18;;;;;;;28.10;14.90;;;3.40;99.90;;;;;;8060372;29;20072;-73
2021/01/24 01:47:25;;;;;;;39.30;17.75;;;2.50;99.80;;;;;;8061372;29;20041;-73
2021/01/24 01:51:27;;;;;;;27.92;15.90;;;2.60;99.50;;;;;;8064562;29;20040;-72
2021/01/24 01:55:28;;;;;;;31.83;16.73;;;2.50;99.70;;;;;;8069653;29;20033;-73
2021/01/24 01:59:30;;;;;;;33.78;17.15;;;3.60;99.90;;;;;;8062272;29;20076;-73
2021/01/24 02:04:02;;;;;;;30.60;16.67;;;4.30;99.90;;;;;;8060639;29;20260;-72
2021/01/24 02:08:13;;;;;;;27.85;16.92;;;4.20;99.90;;;;;;8058133;29;20066;-73
2021/01/24 02:12:25;;;;;;;32.28;17.27;;;2.50;99.60;;;;;;8065654;29;20573;-74
2021/01/24 02:16:28;;;;;;;30.33;17.70;;;2.40;99.50;;;;;;8068548;29;20120;-74
2021/01/24 02:20:36;;;;;;;33.63;17.17;;;3.60;99.90;;;;;;8045841;29;20117;-74
2021/01/24 02:24:47;;;;;;;30.55;16.42;;;2.40;99.50;;;;;;8055859;29;20045;-74
2021/01/24 02:29:00;;;;;;;30.25;15.57;;;3.80;99.90;;;;;;8064272;29;20633;-75
2021/01/24 02:33:15;;;;;;;26.98;15.48;;;2.40;99.40;;;;;;8059422;29;20546;-75
2021/01/24 02:37:19;;;;;;;28.25;15.07;;;2.40;99.50;;;;;;8050970;29;20098;-75
2021/01/24 02:41:21;;;;;;;30.33;14.40;;;3.20;99.70;;;;;;8044386;29;20048;-75
2021/01/24 02:45:23;;;;;;;28.67;15.13;;;3.00;99.60;;;;;;8038762;29;20082;-75
2021/01/24 02:49:29;;;;;;;26.83;14.82;;;2.40;99.60;;;;;;8043016;29;20052;-75
2021/01/24 02:53:33;;;;;;;32.15;17.27;;;2.40;99.50;;;;;;8042549;29;20053;-75
2021/01/24 02:57:37;;;;;;;27.38;15.98;;;2.40;99.80;;;;;;8038447;29;20467;-76
2021/01/24 03:01:39;;;;;;;29.15;15.30;;;2.40;99.50;;;;;;8042956;29;20743;-76
2021/01/24 03:05:40;;;;;;;30.38;15.43;;;2.80;99.60;;;;;;8048820;29;20952;-74
2021/01/24 03:09:42;;;;;;;31.23;15.80;;;3.40;99.90;;;;;;8056777;29;20068;-76
2021/01/24 03:13:48;;;;;;;26.90;15.52;;;3.10;99.70;;;;;;8053009;29;20480;-75
2021/01/24 03:17:50;;;;;;;25.95;14.85;;;2.30;99.50;;;;;;8035018;29;20056;-75
2021/01/24 03:21:54;;;;;;;28.55;14.93;;;2.30;99.50;;;;;;8044297;29;20455;-73
2021/01/24 03:25:57;;;;;;;25.55;15.23;;;2.30;99.50;;;;;;8061353;29;20065;-73
2021/01/24 03:29:59;;;;;;;29.38;15.73;;;3.50;99.90;;;;;;8070203;29;20056;-73
2021/01/24 03:34:04;;;;;;;29.80;16.95;;;4.50;99.90;;;;;;8074287;29;20041;-73
2021/01/24 03:38:06;;;;;;;26.98;16.23;;;2.10;99.60;;;;;;8061196;29;20048;-73
2021/01/24 03:42:07;;;;;;;31.77;18.23;;;4.60;99.90;;;;;;8058294;29;20103;-73
2021/01/24 03:46:09;;;;;;;28.92;16.15;;;2.20;99.80;;;;;;8056650;29;20488;-73
2021/01/24 03:50:11;;;;;;;31.67;17.23;;;3.50;99.90;;;;;;8070531;29;20077;-75
2021/01/24 03:54:13;;;;;;;33.47;16.95;;;2.10;99.50;;;;;;8063988;29;20068;-74
2021/01/24 03:58:15;;;;;;;30.77;17.27;;;2.20;99.50;;;;;;8040447;29;20061;-76
2021/01/24 04:02:17;;;;;;;28.70;16.35;;;3.50;99.90;;;;;;8070296;29;20049;-75
2021/01/24 04:06:19;;;;;;;33.25;17.63;;;3.80;99.90;;;;;;8073320;29;20053;-74
2021/01/24 04:10:20;;;;;;;30.55;17.10;;;2.80;99.90;;;;;;8074568;29;20060;-74
2021/01/24 04:14:22;;;;;;;32.65;17.05;;;2.00;99.60;;;;;;8070289;29;20137;-78
2021/01/24 04:18:24;;;;;;;27.30;15.60;;;2.60;99.80;;;;;;8079303;29;20064;-79
2021/01/24 04:22:25;;;;;;;30.23;17.17;;;1.90;99.70;;;;;;8065172;29;20049;-79
2021/01/24 04:26:27;;;;;;;30.10;17.08;;;2.50;99.80;;;;;;8083993;29;20058;-79
2021/01/24 04:30:28;;;;;;;28.83;16.60;;;4.90;99.90;;;;;;8075940;29;20053;-75
2021/01/24 04:34:30;;;;;;;29.55;17.27;;;4.20;99.90;;;;;;8050644;29;20080;-75
2021/01/24 04:38:31;;;;;;;30.83;16.88;;;4.10;99.90;;;;;;8041383;29;20488;-74
2021/01/24 04:42:33;;;;;;;30.70;16.83;;;1.80;99.90;;;;;;8056807;29;20061;-74
2021/01/24 04:46:35;;;;;;;30.17;17.50;;;2.40;99.70;;;;;;8045834;29;20484;-74
2021/01/24 04:50:37;;;;;;;;;;;1.80;99.50;;;;;;8045553;29;20053;-74
2021/01/24 04:54:41;;;;;;;31.07;17.97;;;1.80;99.30;;;;;;8042592;29;19932;-74
2021/01/24 04:58:43;;;;;;;34.25;17.88;;;1.90;99.40;;;;;;8048618;29;20472;-76
2021/01/24 05:02:45;;;;;;;32.13;18.95;;;1.80;99.40;;;;;;8026722;29;20494;-75
2021/01/24 05:06:47;;;;;;;33.22;17.90;;;1.70;99.00;;;;;;8040736;29;20053;-75
2021/01/24 05:10:54;;;;;;;30.37;17.77;;;1.70;99.40;;;;;;8027794;29;20072;-74
2021/01/24 05:14:58;;;;;;;30.95;18.02;;;2.20;99.60;;;;;;8041146;29;20055;-75
2021/01/24 05:19:00;;;;;;;32.45;18.73;;;1.70;99.50;;;;;;8031959;29;20104;-77
2021/01/24 05:23:02;;;;;;;33.50;19.17;;;1.70;99.50;;;;;;8050612;29;21121;-77
2021/01/24 05:27:09;;;;;;;35.25;19.65;;;1.60;99.50;;;;;;8043478;29;20945;-77
2021/01/24 05:31:10;;;;;;;29.80;17.88;;;1.90;99.60;;;;;;8042294;29;20093;-77
2021/01/24 05:35:13;;;;;;;30.08;18.48;;;2.50;99.80;;;;;;8048547;29;20338;-75
2021/01/24 05:39:16;;;;;;;31.20;18.60;;;1.60;99.50;;;;;;8055057;29;20064;-76
2021/01/24 05:43:17;;;;;;;32.20;19.15;;;3.40;99.90;;;;;;8040442;29;20254;-74
2021/01/24 05:47:19;;;;;;;32.55;18.85;;;1.60;99.70;;;;;;8036625;29;20065;-74
2021/01/24 05:51:21;;;;;;;33.83;18.65;;;1.60;99.50;;;;;;8041641;29;20053;-75
2021/01/24 05:55:31;;;;;;;31.55;18.15;;;1.60;99.50;;;;;;8049464;29;20084;-75
2021/01/24 05:59:51;;;;;;;35.63;19.75;;;1.60;99.50;;;;;;8036119;29;20121;-75
2021/01/24 06:03:58;;;;;;;35.30;19.73;;;1.50;99.40;;;;;;8040940;29;20551;-74
2021/01/24 06:08:00;;;;;;;37.83;19.35;;;1.60;99.50;;;;;;8043937;29;20190;-75
2021/01/24 06:12:03;;;;;;;32.42;19.27;;;1.50;99.40;;;;;;8038704;29;20645;-75
2021/01/24 06:16:13;;;;;;;34.15;20.02;;;1.50;99.40;;;;;;8049121;29;20057;-75
2021/01/24 06:20:19;;;;;;;33.92;18.13;;;1.50;99.40;;;;;;8040546;29;20098;-74
2021/01/24 06:24:38;;;;;;;36.83;20.17;;;1.70;99.50;;;;;;8038847;29;20521;-75
2021/01/24 06:28:44;;;;;;;37.00;20.45;;;1.50;99.40;;;;;;8047944;29;20057;-75
2021/01/24 06:32:45;;;;;;;35.45;20.77;;;2.50;99.60;;;;;;8039246;29;20057;-76
2021/01/24 06:37:19;;;;;;;33.97;19.48;;;1.50;99.40;;;;;;8054594;29;20052;-75
2021/01/24 06:41:43;;;;;;;32.80;19.58;;;1.50;99.30;;;;;;8047370;29;20076;-74
2021/01/24 06:45:45;;;;;;;30.90;17.27;;;1.50;99.30;;;;;;8042365;29;20057;-76
2021/01/24 06:49:46;;;;;;;33.73;18.47;;;1.50;99.40;;;;;;8035945;29;20060;-73
2021/01/24 06:53:48;;;;;;;34.63;19.50;;;1.60;99.50;;;;;;8038036;29;20068;-72
2021/01/24 06:57:49;;;;;;;31.30;17.38;;;1.80;99.20;;;;;;8044693;29;20631;-72
2021/01/24 07:01:51;;;;;;;35.88;19.67;;;1.90;99.00;;;;;;8036768;29;20131;-72
2021/01/24 07:05:53;;;;;;;31.73;19.17;;;2.10;99.00;;;;;;8030585;29;20057;-72
2021/01/24 07:09:55;;;;;;;33.28;18.83;;;2.20;99.00;;;;;;8040171;29;20059;-72
2021/01/24 07:13:56;;;;;;;38.27;20.53;;;2.10;99.00;;;;;;8042401;29;20502;-73
2021/01/24 07:17:59;;;;;;;34.93;19.10;;;2.30;99.00;;;;;;8031814;29;20449;-72
2021/01/24 07:22:01;;;;;;;30.90;19.33;;;2.30;98.90;;;;;;8035537;29;20472;-72
2021/01/24 07:26:03;;;;;;;32.97;20.00;;;2.40;98.90;;;;;;8033149;29;20060;-74
2021/01/24 07:30:06;;;;;;;32.95;19.83;;;2.40;98.60;;;;;;8037113;29;20048;-74
2021/01/24 07:34:07;;;;;;;35.92;20.30;;;2.30;98.50;;;;;;8046949;29;20063;-74
2021/01/24 07:38:09;;;;;;;34.08;20.40;;;2.20;98.60;;;;;;8034270;29;20587;-74
2021/01/24 07:42:11;;;;;;;36.23;20.10;;;2.10;98.70;;;;;;8031497;29;20342;-74
2021/01/24 07:46:13;;;;;;;36.40;20.55;;;2.10;98.80;;;;;;8017168;29;20741;-75
2021/01/24 07:50:14;;;;;;;33.37;20.20;;;1.90;98.90;;;;;;8043818;29;20509;-74
2021/01/24 07:54:16;;;;;;;38.67;19.88;;;1.80;98.90;;;;;;8035154;29;20053;-74
2021/01/24 07:58:18;;;;;;;33.17;19.75;;;1.90;99.10;;;;;;8034354;29;20068;-74
2021/01/24 08:02:21;;;;;;;34.50;21.15;;;1.80;99.10;;;;;;8034358;29;20575;-75
2021/01/24 08:06:26;;;;;;;34.95;21.42;;;-0.10;98.70;;;;;;8046626;29;20049;-75
2021/01/24 08:10:30;;;;;;;32.28;18.95;;;1.80;99.30;;;;;;8054712;29;20048;-74
2021/01/24 08:14:31;;;;;;;37.63;20.98;;;1.70;99.30;;;;;;8034963;29;20479;-74
2021/01/24 08:18:37;;;;;;;39.20;20.43;;;1.70;99.30;;;;;;8041596;29;20061;-74
2021/01/24 08:22:39;;;;;;;35.72;20.17;;;1.70;99.40;;;;;;8039688;29;20060;-74
2021/01/24 08:26:41;;;;;;;38.97;21.40;;;1.70;99.50;;;;;;8046798;29;20107;-74
2021/01/24 08:30:44;;;;;;;38.10;21.48;;;1.70;99.50;;;;;;8039988;29;20054;-75
2021/01/24 08:34:46;;;;;;;36.20;21.55;;;3.90;99.90;;;;;;8040166;29;20053;-74
2021/01/24 08:38:48;;;;;;;36.40;20.27;;;1.80;99.60;;;;;;8036097;29;20441;-74
2021/01/24 08:42:50;;;;;;;34.55;20.08;;;1.90;99.60;;;;;;8039383;29;20053;-74
2021/01/24 08:47:00;;;;;;;35.08;21.83;;;1.90;99.00;;;;;;8049424;29;20452;-74
2021/01/24 08:51:02;;;;;;;33.15;19.48;;;1.90;99.00;;;;;;8036920;29;20057;-74
2021/01/24 08:55:04;;;;;;;45.42;25.10;;;1.90;99.40;;;;;;8041488;29;20418;-74
2021/01/24 08:59:24;;;;;;;45.00;28.45;;;1.90;99.50;;;;;;8039544;29;20056;-74
2021/01/24 09:03:25;;;;;;;41.85;24.25;;;1.90;99.50;;;;;;8035618;29;20065;-72
2021/01/24 09:07:40;;;;;;;53.60;31.17;;;2.00;99.10;;;;;;8050180;29;20056;-73
2021/01/24 09:11:42;;;;;;;52.33;30.98;;;2.00;99.50;;;;;;8039725;29;20463;-73
2021/01/24 09:15:43;;;;;;;37.10;20.87;;;2.00;99.60;;;;;;8031770;29;20687;-73
2021/01/24 09:19:46;;;;;;;47.97;26.50;;;2.10;99.60;;;;;;8035548;29;20051;-73
2021/01/24 09:23:48;;;;;;;48.22;27.65;;;2.20;99.90;;;;;;8042198;29;20073;-73
2021/01/24 09:27:49;;;;;;;50.37;26.67;;;2.30;99.60;;;;;;8040788;29;20068;-73
2021/01/24 09:31:50;;;;;;;50.73;29.17;;;2.30;99.50;;;;;;8030708;29;20113;-73
2021/01/24 09:35:52;;;;;;;48.17;26.20;;;2.30;99.50;;;;;;8031093;29;20803;-73
2021/01/24 09:39:54;;;;;;;46.17;23.10;;;2.30;99.50;;;;;;8018750;28;20671;-75
2021/01/24 09:43:55;;;;;;;42.65;23.85;;;2.40;99.60;;;;;;8033858;29;20538;-75
2021/01/24 09:47:56;;;;;;;43.73;24.30;;;1.70;99.50;;;;;;8035609;29;20365;-76
2021/01/24 09:51:58;;;;;;;42.72;25.00;;;2.70;99.70;;;;;;8024716;29;20530;-75
2021/01/24 09:56:00;;;;;;;43.30;23.98;;;2.70;99.70;;;;;;8023125;29;20060;-75
2021/01/24 10:00:02;;;;;;;43.83;24.52;;;2.60;99.70;;;;;;8043959;29;20045;-75
2021/01/24 10:04:12;;;;;;;44.33;24.10;;;2.60;99.60;;;;;;8040845;29;20089;-75
2021/01/24 10:08:14;;;;;;;46.50;24.73;;;2.70;99.40;;;;;;8037859;29;20539;-75
2021/01/24 10:12:15;;;;;;;52.43;27.73;;;2.70;99.70;;;;;;8026071;29;20057;-75
2021/01/24 10:16:17;;;;;;;40.97;23.37;;;4.40;99.90;;;;;;8038619;29;20059;-75
2021/01/24 10:20:19;;;;;;;42.22;22.48;;;3.20;99.80;;;;;;8046724;29;20056;-76
2021/01/24 10:24:21;;;;;;;38.33;22.80;;;2.80;99.70;;;;;;8040511;29;20056;-76
2021/01/24 10:28:23;;;;;;;47.83;25.07;;;2.80;99.70;;;;;;8037491;29;20423;-77
2021/01/24 10:32:25;;;;;;;40.72;24.42;;;2.80;99.80;;;;;;8048107;29;20105;-75
2021/01/24 10:36:34;;;;;;;43.45;24.90;;;3.80;99.90;;;;;;8051946;29;20661;-76
2021/01/24 10:40:36;;;;;;;48.55;26.60;;;3.70;99.90;;;;;;8036360;29;20061;-75
2021/01/24 10:44:38;;;;;;;40.92;23.45;;;3.10;99.80;;;;;;8032595;29;20329;-75
2021/01/24 10:48:40;;;;;;;41.07;24.77;;;3.10;99.80;;;;;;8033088;29;20108;-76
2021/01/24 10:52:41;;;;;;;50.63;24.00;;;3.20;99.70;;;;;;8025777;29;20492;-76
2021/01/24 10:56:43;;;;;;;40.65;25.75;;;3.00;99.80;;;;;;8026723;29;20144;-77
2021/01/24 11:00:45;;;;;;;49.50;27.52;;;3.00;99.80;;;;;;8018206;29;20142;-76
2021/01/24 11:04:47;;;;;;;57.97;32.38;;;3.00;99.80;;;;;;8036440;29;20045;-76
2021/01/24 11:08:48;;;;;;;55.13;34.50;;;3.00;99.90;;;;;;8026349;29;20639;-76
2021/01/24 11:12:50;;;;;;;49.08;26.25;;;4.00;99.90;;;;;;8045481;29;20716;-76
2021/01/24 11:16:51;;;;;;;45.30;24.50;;;3.20;99.90;;;;;;8032333;29;20096;-75
2021/01/24 11:20:53;;;;;;;42.13;25.38;;;3.10;99.80;;;;;;8031876;29;21206;-76
2021/01/24 11:24:54;;;;;;;46.07;24.77;;;3.10;99.80;;;;;;8034220;29;20108;-75
2021/01/24 11:28:56;;;;;;;42.00;25.97;;;3.10;99.90;;;;;;8045328;29;20545;-78
2021/01/24 11:32:57;;;;;;;47.30;26.50;;;4.10;99.90;;;;;;8037042;29;20494;-75
2021/01/24 11:36:59;;;;;;;42.70;23.85;;;3.10;99.90;;;;;;8033893;29;20128;-76
2021/01/24 11:41:01;;;;;;;40.28;24.75;;;3.40;99.90;;;;;;8041081;29;20053;-75
2021/01/24 11:45:04;;;;;;;38.35;22.75;;;3.20;99.90;;;;;;8032103;29;20452;-75
2021/01/24 11:49:07;;;;;;;42.03;24.75;;;3.20;99.90;;;;;;8040638;29;20056;-75
2021/01/24 11:53:08;;;;;;;41.23;24.57;;;3.20;99.90;;;;;;8000904;29;20109;-76
2021/01/24 11:57:10;;;;;;;48.47;27.17;;;3.50;99.90;;;;;;7995627;29;20484;-76
2021/01/24 12:01:11;;;;;;;41.33;24.50;;;5.10;99.90;;;;;;8036767;29;20109;-76
2021/01/24 12:05:13;;;;;;;39.78;23.65;;;3.50;99.90;;;;;;8037015;28;20057;-76
2021/01/24 12:09:15;;;;;;;43.87;24.33;;;3.70;99.90;;;;;;8035566;29;20137;-76
2021/01/24 12:13:16;;;;;;;42.50;25.50;;;3.60;99.90;;;;;;8017722;29;20596;-75
2021/01/24 12:17:24;;;;;;;47.07;24.63;;;3.50;99.90;;;;;;8029278;29;20472;-75
2021/01/24 12:21:25;;;;;;;44.58;24.45;;;2.50;99.80;;;;;;8018804;29;20472;-76
2021/01/24 12:25:27;;;;;;;42.63;25.85;;;3.60;99.90;;;;;;8031984;29;20045;-75
2021/01/24 12:29:28;;;;;;;50.23;26.87;;;3.50;99.90;;;;;;8036409;29;20094;-76
2021/01/24 12:33:30;;;;;;;42.97;23.93;;;3.60;99.90;;;;;;8036467;29;20476;-75
2021/01/24 12:37:31;;;;;;;40.57;23.60;;;3.60;99.90;;;;;;8055056;29;20775;-75
2021/01/24 12:41:33;;;;;;;37.33;22.17;;;5.00;99.90;;;;;;8029965;29;20128;-75
2021/01/24 12:45:34;;;;;;;45.77;23.90;;;3.60;99.90;;;;;;8038450;29;20476;-75
2021/01/24 12:49:37;;;;;;;40.65;24.38;;;5.60;99.90;;;;;;8038809;29;20109;-76
2021/01/24 12:53:38;;;;;;;43.00;23.90;;;3.90;99.90;;;;;;8038668;29;20152;-76
2021/01/24 12:57:40;;;;;;;46.60;24.20;;;4.10;99.90;;;;;;8034875;29;21886;-76
2021/01/24 13:01:42;;;;;;;41.30;23.60;;;3.80;99.90;;;;;;8022028;29;20056;-76
2021/01/24 13:05:44;;;;;;;48.22;24.95;;;3.70;99.90;;;;;;8032475;29;20056;-77
2021/01/24 13:09:45;;;;;;;44.47;26.00;;;3.80;99.90;;;;;;8040716;29;20049;-75
2021/01/24 13:13:48;;;;;;;44.70;25.75;;;3.90;99.90;;;;;;8024971;29;20939;-75
2021/01/24 13:17:50;;;;;;;41.65;24.17;;;3.80;99.90;;;;;;8036837;29;20109;-74
2021/01/24 13:21:51;;;;;;;42.13;24.30;;;3.80;99.90;;;;;;8030337;29;20467;-73
2021/01/24 13:25:53;;;;;;;42.60;23.10;;;3.30;99.90;;;;;;8037132;29;20243;-71
2021/01/24 13:29:54;;;;;;;43.08;24.08;;;3.80;99.90;;;;;;8036401;29;20053;-71
2021/01/24 13:33:56;;;;;;;43.20;26.33;;;3.80;99.90;;;;;;8058860;29;20060;-72
2021/01/24 13:37:57;;;;;;;43.88;26.50;;;3.80;99.90;;;;;;8032876;28;20965;-72
2021/01/24 13:41:59;;;;;;;47.43;26.87;;;4.20;99.90;;;;;;8040855;29;20065;-71
2021/01/24 13:46:00;;;;;;;45.83;26.37;;;3.80;99.90;;;;;;8037532;29;20076;-72
2021/01/24 13:50:03;;;;;;;39.65;23.27;;;3.80;99.90;;;;;;8043932;29;20472;-71
2021/01/24 13:54:04;;;;;;;;;;;3.80;99.90;;;;;;8039882;29;20056;-72
2021/01/24 13:58:06;;;;;;;37.30;22.58;;;3.80;99.90;;;;;;8036666;29;20364;-71
2021/01/24 14:02:07;;;;;;;40.80;22.15;;;3.90;99.90;;;;;;8036890;29;20057;-72
2021/01/24 14:06:09;;;;;;;41.80;23.20;;;3.80;99.90;;;;;;8048025;29;20300;-72
2021/01/24 14:10:11;;;;;;;40.35;23.70;;;3.90;99.90;;;;;;8037759;29;20422;-73
2021/01/24 14:14:12;;;;;;;41.28;25.50;;;3.90;99.90;;;;;;8033489;29;20085;-72
2021/01/24 14:18:14;;;;;;;35.00;22.23;;;4.00;99.90;;;;;;8040024;29;20065;-72
2021/01/24 14:22:16;;;;;;;35.72;20.95;;;5.00;99.90;;;;;;8035908;29;21101;-73
2021/01/24 14:26:18;;;;;;;31.43;20.60;;;4.00;99.90;;;;;;8031046;29;20061;-73
2021/01/24 14:30:20;;;;;;;40.87;22.30;;;4.60;99.90;;;;;;8037507;29;20060;-75
2021/01/24 14:34:22;;;;;;;37.63;21.33;;;4.00;99.90;;;;;;8037758;29;20149;-73
2021/01/24 14:38:23;;;;;;;31.70;19.20;;;4.10;99.90;;;;;;8047466;29;20057;-73
2021/01/24 14:42:25;;;;;;;32.42;20.75;;;4.60;99.90;;;;;;8053804;29;20471;-73
2021/01/24 14:46:26;;;;;;;35.70;21.57;;;4.10;99.90;;;;;;8043563;29;20525;-73
2021/01/24 14:50:28;;;;;;;29.65;18.58;;;5.00;99.90;;;;;;8036036;29;20776;-73
2021/01/24 14:54:50;;;;;;;31.27;17.45;;;4.10;99.90;;;;;;8054479;29;20144;-73
2021/01/24 14:58:51;;;;;;;31.90;18.17;;;4.00;99.90;;;;;;8039229;29;20057;-72
2021/01/24 15:02:53;;;;;;;31.10;17.23;;;4.00;99.90;;;;;;8048188;29;20458;-73
2021/01/24 15:06:54;;;;;;;24.15;14.45;;;4.40;99.90;;;;;;8039248;29;20112;-73
2021/01/24 15:10:56;;;;;;;24.87;15.10;;;4.00;99.90;;;;;;8040317;29;20519;-73
2021/01/24 15:14:59;;;;;;;22.05;13.25;;;4.00;99.90;;;;;;8034008;29;20102;-73
2021/01/24 15:19:00;;;;;;;32.85;16.17;;;4.00;99.90;;;;;;8033841;29;20709;-73
2021/01/24 15:23:03;;;;;;;47.97;25.15;;;3.90;99.90;;;;;;8030468;29;20044;-73
2021/01/24 15:27:04;;;;;;;76.33;33.50;;;3.90;99.90;;;;;;8035329;29;20100;-73
2021/01/24 15:31:06;;;;;;;49.47;23.48;;;3.90;99.90;;;;;;8034069;29;20065;-73
2021/01/24 15:35:09;;;;;;;47.27;24.80;;;3.90;99.90;;;;;;8038818;29;20060;-73
2021/01/24 15:39:10;;;;;;;48.15;22.98;;;3.90;99.90;;;;;;8042125;29;20480;-73
2021/01/24 15:43:15;;;;;;;41.55;23.08;;;3.80;99.90;;;;;;8029313;29;20061;-73
2021/01/24 15:47:17;;;;;;;44.00;24.38;;;3.80;99.90;;;;;;8033347;29;20060;-73
2021/01/24 15:51:19;;;;;;;30.80;18.73;;;3.80;99.90;;;;;;8035980;29;20364;-73
2021/01/24 15:55:22;;;;;;;25.55;14.60;;;3.80;99.90;;;;;;8034045;29;20059;-73
2021/01/24 15:59:24;;;;;;;25.10;16.33;;;3.80;99.90;;;;;;8036393;29;20086;-73
2021/01/24 16:03:25;;;;;;;26.13;15.30;;;3.80;99.90;;;;;;8034645;29;20053;-73
2021/01/24 16:07:27;;;;;;;28.58;18.08;;;3.80;99.90;;;;;;8033826;29;20514;-72
2021/01/24 16:11:28;;;;;;;37.25;21.40;;;3.80;99.90;;;;;;8032197;29;20064;-73
2021/01/24 16:15:30;;;;;;;34.20;18.83;;;3.80;99.90;;;;;;8052040;29;20603;-73
2021/01/24 16:19:31;;;;;;;58.27;25.57;;;3.80;99.90;;;;;;8038737;29;20053;-73
2021/01/24 16:23:33;;;;;;;34.53;19.92;;;3.70;99.90;;;;;;8041762;29;20128;-73
2021/01/24 16:27:35;;;;;;;;;;;3.70;99.90;;;;;;8041054;29;20061;-73
2021/01/24 16:31:36;;;;;;;35.25;20.67;;;3.70;99.90;;;;;;8053805;29;19932;-73
2021/01/24 16:35:38;;;;;;;30.45;17.58;;;3.70;99.90;;;;;;8041813;29;20052;-73
2021/01/24 16:39:44;;;;;;;32.22;19.00;;;3.60;99.90;;;;;;8034997;29;20038;-73
2021/01/24 16:43:46;;;;;;;36.80;20.03;;;3.60;99.90;;;;;;8038956;29;20061;-73
2021/01/24 16:47:47;;;;;;;34.53;18.70;;;3.60;99.90;;;;;;8022308;29;20535;-73
2021/01/24 16:51:49;;;;;;;39.80;21.67;;;4.40;99.90;;;;;;8024493;29;20083;-73
2021/01/24 16:55:51;;;;;;;42.72;22.35;;;3.90;99.90;;;;;;8028777;29;20040;-73
2021/01/24 16:59:53;;;;;;;34.87;17.37;;;3.60;99.90;;;;;;8021708;29;20049;-73
2021/01/24 17:03:54;;;;;;;25.27;13.98;;;3.60;99.90;;;;;;8036864;29;20061;-73
2021/01/24 17:07:56;;;;;;;20.70;13.40;;;3.50;99.90;;;;;;8045305;29;20057;-72
2021/01/24 17:11:57;;;;;;;22.20;12.73;;;3.50;99.90;;;;;;8038506;29;20496;-73
2021/01/24 17:15:58;;;;;;;20.83;12.80;;;4.10;99.90;;;;;;8029876;29;20575;-73
2021/01/24 17:20:00;;;;;;;28.75;17.23;;;3.80;99.90;;;;;;8034422;29;20484;-72
2021/01/24 17:24:02;;;;;;;28.67;15.25;;;3.40;99.90;;;;;;8033055;29;20416;-73
2021/01/24 17:28:03;;;;;;;39.03;17.47;;;3.40;99.90;;;;;;8044635;29;20105;-73
2021/01/24 17:32:07;;;;;;;30.95;14.38;;;3.40;99.90;;;;;;8045869;29;20480;-73
2021/01/24 17:36:09;;;;;;;22.80;11.93;;;3.60;99.90;;;;;;8034775;29;20053;-73
2021/01/24 17:40:11;;;;;;;16.40;9.48;;;3.40;99.90;;;;;;8032045;29;20072;-73
2021/01/24 17:44:13;;;;;;;20.25;11.98;;;3.40;99.90;;;;;;8037364;29;20551;-73
2021/01/24 17:48:14;;;;;;;21.00;11.73;;;3.30;99.90;;;;;;8036178;29;20169;-74
2021/01/24 17:52:16;;;;;;;17.60;10.93;;;3.40;99.90;;;;;;8032248;28;20045;-73
2021/01/24 17:56:18;;;;;;;20.98;12.18;;;3.20;99.90;;;;;;8036415;28;20091;-73
2021/01/24 18:00:20;;;;;;;13.45;8.18;;;3.20;99.90;;;;;;8025707;29;20596;-73
2021/01/24 18:04:25;;;;;;;13.02;8.00;;;4.20;99.90;;;;;;8040051;29;20396;-73
2021/01/24 18:08:26;;;;;;;17.67;11.53;;;3.20;99.90;;;;;;8015010;29;20045;-73
2021/01/24 18:12:28;;;;;;;16.88;10.68;;;3.20;99.90;;;;;;8036213;29;20053;-73
2021/01/24 18:16:29;;;;;;;16.37;10.70;;;3.20;99.90;;;;;;8033681;29;20507;-73
2021/01/24 18:20:31;;;;;;;18.00;10.73;;;3.80;99.90;;;;;;8042167;29;20101;-73
2021/01/24 18:24:35;;;;;;;11.15;6.40;;;3.20;99.90;;;;;;8032475;29;20109;-73
2021/01/24 18:28:37;;;;;;;9.40;5.05;;;3.20;99.90;;;;;;8032111;29;20121;-73
2021/01/24 18:32:38;;;;;;;12.83;7.37;;;3.90;99.90;;;;;;8038480;29;20052;-73
2021/01/24 18:36:40;;;;;;;13.65;8.10;;;3.10;99.90;;;;;;8036565;29;20060;-73
2021/01/24 18:40:42;;;;;;;15.40;9.82;;;3.10;99.90;;;;;;8042104;29;20083;-73
2021/01/24 18:44:43;;;;;;;39.45;20.38;;;3.10;99.90;;;;;;8034415;29;20053;-73
2021/01/24 18:48:45;;;;;;;43.03;21.73;;;3.30;99.90;;;;;;8037297;29;20057;-73
2021/01/24 18:52:46;;;;;;;25.85;15.43;;;3.10;99.90;;;;;;8033930;29;20053;-73
2021/01/24 18:56:48;;;;;;;35.90;21.20;;;3.00;99.90;;;;;;8035161;29;20097;-75
2021/01/24 19:00:50;;;;;;;20.97;11.10;;;3.50;99.90;;;;;;8039052;29;20056;-76
2021/01/24 19:04:51;;;;;;;20.15;12.88;;;3.00;99.90;;;;;;8035434;29;20598;-75
2021/01/24 19:08:53;;;;;;;19.33;12.30;;;4.40;99.90;;;;;;8060766;29;20109;-76
2021/01/24 19:12:54;;;;;;;20.60;13.43;;;3.10;99.90;;;;;;8052345;29;20529;-76
2021/01/24 19:16:56;;;;;;;20.40;12.90;;;4.50;99.90;;;;;;8043432;29;20079;-75
2021/01/24 19:20:58;;;;;;;23.00;14.43;;;3.00;99.90;;;;;;8028191;29;20629;-76
2021/01/24 19:24:59;;;;;;;19.88;13.60;;;3.30;99.90;;;;;;8046316;29;20069;-75
2021/01/24 19:29:00;;;;;;;25.05;15.10;;;3.60;99.90;;;;;;8046317;29;20053;-76
2021/01/24 19:33:02;;;;;;;22.33;13.02;;;2.90;99.90;;;;;;8048031;29;20076;-75
2021/01/24 19:37:05;;;;;;;19.80;12.60;;;0.80;99.70;;;;;;8030594;29;20041;-76
2021/01/24 19:41:06;;;;;;;17.60;11.45;;;2.80;99.90;;;;;;8026076;29;20049;-75
2021/01/24 19:45:08;;;;;;;20.92;11.68;;;3.20;99.90;;;;;;8047660;29;20069;-76
2021/01/24 19:49:10;;;;;;;30.05;17.75;;;2.70;99.90;;;;;;8054310;29;20551;-76
2021/01/24 19:53:12;;;;;;;27.83;16.83;;;3.20;99.90;;;;;;8021762;29;20060;-75
2021/01/24 19:57:13;;;;;;;43.05;21.33;;;3.60;99.90;;;;;;8037709;29;20725;-75
2021/01/24 20:01:15;;;;;;;49.85;26.52;;;2.00;99.90;;;;;;8023421;29;20097;-76
2021/01/24 20:05:17;;;;;;;24.08;13.90;;;2.60;99.90;;;;;;8039193;29;20050;-76
2021/01/24 20:09:24;;;;;;;22.42;13.95;;;2.60;99.90;;;;;;8049573;29;20425;-77
2021/01/24 20:13:25;;;;;;;19.42;11.57;;;2.70;99.90;;;;;;8062447;29;20068;-76
2021/01/24 20:17:27;;;;;;;16.80;11.07;;;3.50;99.90;;;;;;8057866;29;20137;-76
2021/01/24 20:21:28;;;;;;;20.25;12.15;;;2.60;99.90;;;;;;8061424;29;20053;-76
2021/01/24 20:25:30;;;;;;;19.30;11.67;;;2.60;99.90;;;;;;8071862;29;20053;-75
2021/01/24 20:29:32;;;;;;;17.52;11.30;;;4.00;99.90;;;;;;8068246;29;20052;-75
2021/01/24 20:33:33;;;;;;;17.23;11.32;;;2.50;99.90;;;;;;8064975;29;20060;-75
2021/01/24 20:37:35;;;;;;;18.73;12.65;;;2.50;99.90;;;;;;8050264;29;20049;-75
2021/01/24 20:41:36;;;;;;;16.48;11.10;;;5.10;99.90;;;;;;8065463;29;20053;-77
2021/01/24 20:45:42;;;;;;;19.70;12.02;;;4.60;99.90;;;;;;8075302;29;20049;-75
2021/01/24 20:49:43;;;;;;;17.42;10.63;;;2.40;99.90;;;;;;8065124;29;20083;-76